createdAt,value
2023-01-20T00:00:49.447Z,20.65
2023-01-20T00:01:51.989Z,19.48
2023-01-20T00:02:57.252Z,18.80
2023-01-20T00:04:19.917Z,22.40
2023-01-20T00:05:50.818Z,20.08
2023-01-20T00:07:13.355Z,23.75
2023-01-20T00:08:35.172Z,21.10
2023-01-20T00:09:58.989Z,20.45
2023-01-20T00:11:21.418Z,21.95
2023-01-20T00:12:43.886Z,21.63
2023-01-20T00:14:06.874Z,18.30
2023-01-20T00:15:29.393Z,23.65
2023-01-20T00:16:52.058Z,21.98
2023-01-20T00:18:14.599Z,21.83
2023-01-20T00:19:36.162Z,21.95
2023-01-20T00:21:03.063Z,24.00
2023-01-20T00:22:26.610Z,24.20
2023-01-20T00:23:52.236Z,19.85
2023-01-20T00:25:15.638Z,22.52
2023-01-20T00:26:39.506Z,21.55
2023-01-20T00:28:02.094Z,23.00
2023-01-20T00:29:25.786Z,19.30
2023-01-20T00:30:47.861Z,24.90
2023-01-20T00:32:10.529Z,22.25
2023-01-20T00:33:32.258Z,16.52
2023-01-20T00:34:54.765Z,18.30
2023-01-20T00:36:20.097Z,21.75
2023-01-20T00:37:44.339Z,24.35
2023-01-20T00:39:06.978Z,20.15
2023-01-20T00:40:30.091Z,21.08
2023-01-20T00:41:53.621Z,21.02
2023-01-20T00:43:15.185Z,21.88
2023-01-20T00:44:37.686Z,21.98
2023-01-20T00:46:00.738Z,23.45
2023-01-20T00:47:23.365Z,20.70
2023-01-20T00:48:44.927Z,20.52
2023-01-20T00:50:08.097Z,24.13
2023-01-20T00:51:30.664Z,21.73
2023-01-20T00:52:53.155Z,20.88
2023-01-20T00:54:16.135Z,19.35
2023-01-20T00:55:40.194Z,21.08
2023-01-20T00:57:03.677Z,21.17
2023-01-20T00:58:27.156Z,24.75
2023-01-20T00:59:49.659Z,24.85
2023-01-20T01:01:12.763Z,24.63
2023-01-20T01:02:37.835Z,25.40
2023-01-20T01:04:00.450Z,22.55
2023-01-20T01:05:22.067Z,25.63
2023-01-20T01:06:44.679Z,23.02
2023-01-20T01:08:06.298Z,29.52
2023-01-20T01:09:30.251Z,26.60
2023-01-20T01:10:57.628Z,26.05
2023-01-20T01:12:22.071Z,24.58
2023-01-20T01:13:43.640Z,22.58
2023-01-20T01:15:07.307Z,27.35
2023-01-20T01:16:29.036Z,23.85
2023-01-20T01:17:52.684Z,25.67
2023-01-20T01:19:15.975Z,25.85
2023-01-20T01:20:39.184Z,33.28
2023-01-20T01:22:02.806Z,33.25
2023-01-20T01:23:24.535Z,26.48
2023-01-20T01:24:48.209Z,32.25
2023-01-20T01:26:12.481Z,26.63
2023-01-20T01:27:35.029Z,28.90
2023-01-20T01:28:57.546Z,27.73
2023-01-20T01:30:19.384Z,28.10
2023-01-20T01:31:41.972Z,31.48
2023-01-20T01:33:03.607Z,28.17
2023-01-20T01:36:27.856Z,35.20
2023-01-20T01:37:49.363Z,26.05
2023-01-20T01:39:11.862Z,31.45
2023-01-20T01:40:35.430Z,30.70
2023-01-20T01:41:58.326Z,26.42
2023-01-20T01:43:24.462Z,33.33
2023-01-20T01:45:25.887Z,25.40
2023-01-20T01:46:48.435Z,29.33
2023-01-20T01:48:10.582Z,30.05
2023-01-20T01:49:34.951Z,29.40
2023-01-20T01:50:59.572Z,31.38
2023-01-20T01:52:22.077Z,32.65
2023-01-20T01:53:48.776Z,29.13
2023-01-20T01:55:11.703Z,33.28
2023-01-20T01:56:34.986Z,29.83
2023-01-20T01:57:59.833Z,32.95
2023-01-20T01:59:22.767Z,26.60
2023-01-20T02:00:45.155Z,34.80
2023-01-20T02:02:07.857Z,26.67
2023-01-20T02:03:43.217Z,27.13
2023-01-20T02:05:05.773Z,33.13
2023-01-20T02:06:33.088Z,29.60
2023-01-20T02:07:55.751Z,28.38
2023-01-20T02:09:18.909Z,30.45
2023-01-20T02:10:41.471Z,32.03
2023-01-20T02:12:09.709Z,31.23
2023-01-20T02:13:33.834Z,33.22
2023-01-20T02:14:59.269Z,33.10
2023-01-20T02:16:32.705Z,29.27
2023-01-20T02:18:12.412Z,27.38
2023-01-20T02:20:01.121Z,32.20
2023-01-20T02:21:52.066Z,39.38
2023-01-20T02:23:25.941Z,31.15
2023-01-20T02:25:30.488Z,29.63
2023-01-20T02:27:04.445Z,32.83
2023-01-20T02:28:55.471Z,30.35
2023-01-20T02:30:40.596Z,34.00
2023-01-20T02:32:14.775Z,25.92
2023-01-20T02:33:42.032Z,32.95
2023-01-20T02:35:09.775Z,35.95
2023-01-20T02:36:38.989Z,32.55
2023-01-20T02:38:12.038Z,30.77
2023-01-20T02:39:42.512Z,26.13
2023-01-20T02:41:11.506Z,27.45
2023-01-20T02:42:41.147Z,33.75
2023-01-20T02:44:12.116Z,28.38
2023-01-20T02:45:41.094Z,30.63
2023-01-20T02:47:10.927Z,28.42
2023-01-20T02:48:39.699Z,25.58
2023-01-20T02:50:09.252Z,27.00
2023-01-20T02:51:36.614Z,28.17
2023-01-20T02:53:02.895Z,25.80
2023-01-20T02:54:29.740Z,29.73
2023-01-20T02:55:55.203Z,28.58
2023-01-20T02:57:24.928Z,27.20
2023-01-20T02:58:51.088Z,30.83
2023-01-20T03:00:18.079Z,26.05
2023-01-20T03:01:43.671Z,27.80
2023-01-20T03:03:10.310Z,30.65
2023-01-20T03:04:39.493Z,26.80
2023-01-20T03:06:06.959Z,32.10
2023-01-20T03:07:33.064Z,30.25
2023-01-20T03:08:59.294Z,30.83
2023-01-20T03:10:24.937Z,27.85
2023-01-20T03:11:54.068Z,29.17
2023-01-20T03:13:18.850Z,29.58
2023-01-20T03:14:42.332Z,28.20
2023-01-20T03:16:09.436Z,30.17
2023-01-20T03:17:32.488Z,27.20
2023-01-20T03:18:56.779Z,29.35
2023-01-20T03:20:20.828Z,27.05
2023-01-20T03:21:43.356Z,32.15
2023-01-20T03:23:05.125Z,28.02
2023-01-20T03:24:30.477Z,29.40
2023-01-20T03:25:54.035Z,29.10
2023-01-20T03:27:17.500Z,28.25
2023-01-20T03:28:42.645Z,25.50
2023-01-20T03:30:07.375Z,35.60
2023-01-20T03:31:34.322Z,34.08
2023-01-20T03:32:57.400Z,34.45
2023-01-20T03:34:23.793Z,35.33
2023-01-20T03:35:47.965Z,28.13
2023-01-20T03:37:12.550Z,31.17
2023-01-20T03:38:34.827Z,34.65
2023-01-20T03:39:58.638Z,36.70
2023-01-20T03:41:29.395Z,35.60
2023-01-20T03:42:59.994Z,32.05
2023-01-20T03:44:29.351Z,35.85
2023-01-20T03:46:01.414Z,34.38
2023-01-20T03:47:34.895Z,30.65
2023-01-20T03:49:04.529Z,35.00
2023-01-20T03:50:36.241Z,31.15
2023-01-20T03:54:48.176Z,31.35
2023-01-20T03:56:15.591Z,29.38
2023-01-20T03:57:42.591Z,36.17
2023-01-20T03:59:07.713Z,28.75
2023-01-20T04:00:31.459Z,29.83
2023-01-20T04:01:55.136Z,31.23
2023-01-20T04:03:23.752Z,30.63
2023-01-20T04:04:49.211Z,32.60
2023-01-20T04:06:14.614Z,30.27
2023-01-20T04:07:41.015Z,33.00
2023-01-20T04:09:05.870Z,34.25
2023-01-20T04:10:33.628Z,32.85
2023-01-20T04:11:55.235Z,33.50
2023-01-20T04:13:17.924Z,32.00
2023-01-20T04:14:40.544Z,32.22
2023-01-20T04:16:03.812Z,32.13
2023-01-20T04:17:28.585Z,30.30
2023-01-20T04:18:51.804Z,38.28
2023-01-20T04:20:16.287Z,37.22
2023-01-20T04:21:43.613Z,29.17
2023-01-20T04:23:09.097Z,34.00
2023-01-20T04:24:39.112Z,32.85
2023-01-20T04:26:03.047Z,36.22
2023-01-20T04:27:24.572Z,33.33
2023-01-20T04:28:47.073Z,31.63
2023-01-20T04:30:09.667Z,28.90
2023-01-20T04:31:32.246Z,33.42
2023-01-20T04:32:54.748Z,32.40
2023-01-20T04:34:16.435Z,30.55
2023-01-20T04:35:38.895Z,29.83
2023-01-20T04:37:01.390Z,30.60
2023-01-20T04:38:22.913Z,34.20
2023-01-20T04:39:45.450Z,37.03
2023-01-20T04:41:10.871Z,30.92
2023-01-20T04:42:33.415Z,32.95
2023-01-20T04:43:54.951Z,38.65
2023-01-20T04:45:18.130Z,33.08
2023-01-20T04:46:39.739Z,33.25
2023-01-20T04:48:02.313Z,38.92
2023-01-20T04:49:23.965Z,41.03
2023-01-20T04:50:46.442Z,42.63
2023-01-20T04:52:08.946Z,37.42
2023-01-20T04:53:31.419Z,30.08
2023-01-20T04:54:53.946Z,32.63
2023-01-20T04:56:16.883Z,35.30
2023-01-20T04:57:39.444Z,35.20
2023-01-20T04:59:01.987Z,33.25
2023-01-20T05:00:24.496Z,38.63
2023-01-20T05:01:47.054Z,34.47
2023-01-20T05:03:08.733Z,31.77
2023-01-20T05:04:31.305Z,35.80
2023-01-20T05:05:54.912Z,36.05
2023-01-20T05:07:16.441Z,30.42
2023-01-20T05:08:39.054Z,26.05
2023-01-20T05:10:01.579Z,28.05
2023-01-20T05:11:25.421Z,27.65
2023-01-20T05:12:47.004Z,27.73
2023-01-20T05:14:09.596Z,26.77
2023-01-20T05:15:32.211Z,28.58
2023-01-20T05:16:53.862Z,29.88
2023-01-20T05:18:16.507Z,27.20
2023-01-20T05:19:38.081Z,24.33
2023-01-20T05:21:00.884Z,27.55
2023-01-20T05:22:23.917Z,24.55
2023-01-20T05:23:46.394Z,26.17
2023-01-20T05:25:08.937Z,25.02
2023-01-20T05:26:33.380Z,31.15
2023-01-20T05:27:55.829Z,26.02
2023-01-20T05:29:17.462Z,32.22
2023-01-20T05:30:39.966Z,25.40
2023-01-20T05:32:02.490Z,23.67
2023-01-20T05:33:24.003Z,24.08
2023-01-20T05:34:46.526Z,23.25
2023-01-20T05:36:10.314Z,24.30
2023-01-20T05:37:32.805Z,24.70
2023-01-20T05:38:54.536Z,21.65
2023-01-20T05:40:17.506Z,24.42
2023-01-20T05:41:40.381Z,24.00
2023-01-20T05:43:03.533Z,23.35
2023-01-20T05:44:25.139Z,23.10
2023-01-20T05:45:47.659Z,19.42
2023-01-20T05:47:10.580Z,27.00
2023-01-20T05:48:32.415Z,20.98
2023-01-20T05:49:55.067Z,21.95
2023-01-20T05:51:17.579Z,23.25
2023-01-20T05:52:40.083Z,26.08
2023-01-20T05:54:02.582Z,21.05
2023-01-20T05:55:25.203Z,29.13
2023-01-20T05:56:49.010Z,25.85
2023-01-20T05:58:11.668Z,20.92
2023-01-20T05:59:34.192Z,28.63
2023-01-20T06:01:04.325Z,20.75
2023-01-20T06:02:26.946Z,23.00
2023-01-20T06:03:49.489Z,24.63
2023-01-20T06:05:12.208Z,24.70
2023-01-20T06:06:34.849Z,22.17
2023-01-20T06:07:58.211Z,24.92
2023-01-20T06:09:20.701Z,21.98
2023-01-20T06:10:42.241Z,21.52
2023-01-20T06:12:06.676Z,22.77
2023-01-20T06:13:29.153Z,25.05
2023-01-20T06:14:51.836Z,23.40
2023-01-20T06:16:14.373Z,22.23
2023-01-20T06:17:36.912Z,23.85
2023-01-20T06:18:59.691Z,19.05
2023-01-20T06:20:22.806Z,23.60
2023-01-20T06:21:46.943Z,26.00
2023-01-20T06:23:09.482Z,22.35
2023-01-20T06:24:31.999Z,23.35
2023-01-20T06:26:00.027Z,24.35
2023-01-20T06:27:23.872Z,23.25
2023-01-20T06:28:46.390Z,22.25
2023-01-20T06:30:10.346Z,27.83
2023-01-20T06:31:32.934Z,18.65
2023-01-20T06:32:57.663Z,19.35
2023-01-20T06:34:20.234Z,21.98
2023-01-20T06:35:42.714Z,20.88
2023-01-20T06:37:05.212Z,20.20
2023-01-20T06:38:30.505Z,21.45
2023-01-20T06:39:53.039Z,21.45
2023-01-20T06:41:15.565Z,27.70
2023-01-20T06:42:39.483Z,22.58
2023-01-20T06:44:02.012Z,22.73
2023-01-20T06:45:24.927Z,25.10
2023-01-20T06:46:48.374Z,21.85
2023-01-20T06:48:10.954Z,25.27
2023-01-20T06:49:34.230Z,23.55
2023-01-20T06:51:01.493Z,22.98
2023-01-20T06:52:24.148Z,25.83
2023-01-20T06:53:47.033Z,22.75
2023-01-20T06:55:11.204Z,25.52
2023-01-20T06:56:33.797Z,26.08
2023-01-20T06:57:57.718Z,28.33
2023-01-20T06:59:20.239Z,24.35
2023-01-20T07:00:42.724Z,26.23
2023-01-20T07:02:05.385Z,25.23
2023-01-20T07:03:28.024Z,23.77
2023-01-20T07:04:53.130Z,24.38
2023-01-20T07:06:18.335Z,27.20
2023-01-20T07:07:44.131Z,27.15
2023-01-20T07:09:08.623Z,25.70
2023-01-20T07:10:30.178Z,22.23
2023-01-20T07:11:52.718Z,23.33
2023-01-20T07:13:16.625Z,22.30
2023-01-20T07:14:39.311Z,23.08
2023-01-20T07:16:01.947Z,24.27
2023-01-20T07:17:24.568Z,25.65
2023-01-20T07:18:49.304Z,30.05
2023-01-20T07:20:12.808Z,25.00
2023-01-20T07:21:35.383Z,20.92
2023-01-20T07:23:00.385Z,25.48
2023-01-20T07:24:22.903Z,31.70
2023-01-20T07:25:45.473Z,29.00
2023-01-20T07:27:07.989Z,28.63
2023-01-20T07:28:33.186Z,28.30
2023-01-20T07:29:55.655Z,33.92
2023-01-20T07:31:20.399Z,37.28
2023-01-20T07:32:42.983Z,39.22
2023-01-20T07:34:05.558Z,28.90
2023-01-20T07:35:26.327Z,38.80
2023-01-20T07:36:47.509Z,29.98
2023-01-20T07:37:49.072Z,30.08
2023-01-20T07:38:52.233Z,36.67
2023-01-20T07:39:53.854Z,33.85
2023-01-20T07:40:58.339Z,34.15
2023-01-20T07:42:00.851Z,31.48
2023-01-20T07:43:03.491Z,30.30
2023-01-20T07:44:07.373Z,31.10
2023-01-20T07:45:10.383Z,31.42
2023-01-20T07:46:12.645Z,33.30
2023-01-20T07:47:15.264Z,35.55
2023-01-20T07:48:16.829Z,34.88
2023-01-20T07:49:29.311Z,28.55
2023-01-20T07:50:40.886Z,32.13
2023-01-20T07:51:53.527Z,27.90
2023-01-20T07:53:00.258Z,29.00
2023-01-20T07:54:04.450Z,27.63
2023-01-20T07:55:07.600Z,30.13
2023-01-20T07:56:12.496Z,30.05
2023-01-20T07:57:15.066Z,24.00
2023-01-20T07:58:16.620Z,26.80
2023-01-20T07:59:21.448Z,26.42
2023-01-20T08:00:23.174Z,25.30
2023-01-20T08:01:30.141Z,25.02
2023-01-20T08:02:37.904Z,25.05
2023-01-20T08:03:40.895Z,23.77
2023-01-20T08:04:43.595Z,28.15
2023-01-20T08:05:45.505Z,25.77
2023-01-20T08:06:48.109Z,26.65
2023-01-20T08:07:52.833Z,27.67
2023-01-20T08:08:58.616Z,22.98
2023-01-20T08:10:11.794Z,22.60
2023-01-20T08:11:14.966Z,25.05
2023-01-20T08:12:17.506Z,25.63
2023-01-20T08:13:19.033Z,23.77
2023-01-20T08:14:22.984Z,22.75
2023-01-20T08:15:35.492Z,25.52
2023-01-20T08:16:38.167Z,33.92
2023-01-20T08:17:54.459Z,24.98
2023-01-20T08:18:57.986Z,23.70
2023-01-20T08:19:59.590Z,22.75
2023-01-20T08:21:06.285Z,21.67
2023-01-20T08:22:08.852Z,23.85
2023-01-20T08:23:11.352Z,25.65
2023-01-20T08:24:14.580Z,24.05
2023-01-20T08:25:17.563Z,23.77
2023-01-20T08:26:24.814Z,22.83
2023-01-20T08:27:26.403Z,23.73
2023-01-20T08:28:29.745Z,26.95
2023-01-20T08:29:34.351Z,23.67
2023-01-20T08:30:37.261Z,28.95
2023-01-20T08:31:49.915Z,27.55
2023-01-20T08:33:01.568Z,30.40
2023-01-20T08:34:04.655Z,22.38
2023-01-20T08:35:06.451Z,22.83
2023-01-20T08:36:12.331Z,24.45
2023-01-20T08:37:13.893Z,32.38
2023-01-20T08:38:16.393Z,27.17
2023-01-20T08:39:18.934Z,23.30
2023-01-20T08:40:21.882Z,23.60
2023-01-20T08:41:26.679Z,28.48
2023-01-20T08:42:29.184Z,28.05
2023-01-20T08:43:30.802Z,26.80
2023-01-20T08:44:36.860Z,27.60
2023-01-20T08:45:38.598Z,28.17
2023-01-20T08:46:42.037Z,26.17
2023-01-20T08:47:45.890Z,23.38
2023-01-20T08:48:49.753Z,23.85
2023-01-20T08:49:53.618Z,23.65
2023-01-20T08:50:55.203Z,31.73
2023-01-20T08:51:58.051Z,26.52
2023-01-20T08:52:59.607Z,29.80
2023-01-20T08:54:12.390Z,23.65
2023-01-20T08:55:14.445Z,24.27
2023-01-20T08:56:17.965Z,27.65
2023-01-20T08:57:21.041Z,24.80
2023-01-20T08:58:25.147Z,26.73
2023-01-20T08:59:39.198Z,24.20
2023-01-20T09:00:51.904Z,26.40
2023-01-20T09:01:54.505Z,24.25
2023-01-20T09:02:56.064Z,26.50
2023-01-20T09:04:05.897Z,24.67
2023-01-20T09:05:10.002Z,24.60
2023-01-20T09:06:12.296Z,30.77
2023-01-20T09:07:15.217Z,25.05
2023-01-20T09:08:20.809Z,23.33
2023-01-20T09:09:23.774Z,24.60
2023-01-20T09:10:25.846Z,29.67
2023-01-20T09:11:34.311Z,27.95
2023-01-20T09:12:47.578Z,19.73
2023-01-20T09:14:00.171Z,22.65
2023-01-20T09:15:07.429Z,23.90
2023-01-20T09:16:11.834Z,23.67
2023-01-20T09:17:14.672Z,22.27
2023-01-20T09:18:16.283Z,23.50
2023-01-20T09:19:19.143Z,25.55
2023-01-20T09:20:20.756Z,22.33
2023-01-20T09:21:33.337Z,20.20
2023-01-20T09:22:35.865Z,22.85
2023-01-20T09:23:40.578Z,21.48
2023-01-20T09:24:43.095Z,25.67
2023-01-20T09:25:55.027Z,23.13
2023-01-20T09:27:08.404Z,23.58
2023-01-20T09:28:20.729Z,21.20
2023-01-20T09:29:23.562Z,20.20
2023-01-20T09:30:26.425Z,26.63
2023-01-20T09:31:29.024Z,23.25
2023-01-20T09:32:30.716Z,25.02
2023-01-20T09:33:35.981Z,22.98
2023-01-20T09:34:39.090Z,18.25
2023-01-20T09:35:40.776Z,23.52
2023-01-20T09:36:53.956Z,23.38
2023-01-20T09:38:14.494Z,22.92
2023-01-20T09:39:35.526Z,19.02
2023-01-20T09:41:02.385Z,22.13
2023-01-20T09:42:36.425Z,19.30
2023-01-20T09:43:59.419Z,21.23
2023-01-20T09:45:57.307Z,22.30
2023-01-20T09:47:22.500Z,22.45
2023-01-20T09:48:53.911Z,23.20
2023-01-20T09:50:43.506Z,22.95
2023-01-20T09:52:11.605Z,22.02
2023-01-20T09:53:30.088Z,21.40
2023-01-20T09:54:39.561Z,28.13
2023-01-20T09:55:48.032Z,23.77
2023-01-20T09:56:53.570Z,21.73
2023-01-20T09:58:16.461Z,21.63
2023-01-20T09:59:24.915Z,18.73
2023-01-20T10:00:30.034Z,21.92
2023-01-20T10:01:40.233Z,22.15
2023-01-20T10:03:10.595Z,27.35
2023-01-20T10:04:27.230Z,24.98
2023-01-20T10:05:33.456Z,23.00
2023-01-20T10:06:42.141Z,25.77
2023-01-20T10:07:51.999Z,25.95
2023-01-20T10:09:05.371Z,24.42
2023-01-20T10:10:17.968Z,20.30
2023-01-20T10:11:22.943Z,22.90
2023-01-20T10:12:31.649Z,23.77
2023-01-20T10:13:51.325Z,23.98
2023-01-20T10:14:59.292Z,21.58
2023-01-20T10:16:08.278Z,25.80
2023-01-20T10:17:16.974Z,24.25
2023-01-20T10:18:29.080Z,22.00
2023-01-20T10:19:50.184Z,21.50
2023-01-20T10:21:10.223Z,21.25
2023-01-20T10:22:22.093Z,17.70
2023-01-20T10:23:30.226Z,16.73
2023-01-20T10:24:37.949Z,20.65
2023-01-20T10:25:45.027Z,22.77
2023-01-20T10:26:53.659Z,18.85
2023-01-20T10:27:59.572Z,19.35
2023-01-20T10:29:06.851Z,17.38
2023-01-20T10:30:15.966Z,17.52
2023-01-20T10:31:24.833Z,19.77
2023-01-20T10:32:33.453Z,16.92
2023-01-20T10:33:40.371Z,20.52
2023-01-20T10:34:47.051Z,16.38
2023-01-20T10:36:01.278Z,21.80
2023-01-20T10:37:15.683Z,20.58
2023-01-20T10:38:30.076Z,17.38
2023-01-20T10:39:42.055Z,20.00
2023-01-20T10:41:01.069Z,16.83
2023-01-20T10:42:14.060Z,19.58
2023-01-20T10:43:18.511Z,14.95
2023-01-20T10:44:34.767Z,17.98
2023-01-20T10:45:51.527Z,16.05
2023-01-20T10:47:13.493Z,16.23
2023-01-20T10:48:31.382Z,16.60
2023-01-20T10:50:16.617Z,16.42
2023-01-20T10:51:28.973Z,17.25
2023-01-20T10:52:51.486Z,18.60
2023-01-20T10:54:08.003Z,19.20
2023-01-20T10:55:21.723Z,18.65
2023-01-20T10:56:39.212Z,19.60
2023-01-20T10:57:42.163Z,16.45
2023-01-20T10:58:46.903Z,15.45
2023-01-20T10:59:54.237Z,13.93
2023-01-20T11:00:57.821Z,17.52
2023-01-20T11:02:13.938Z,13.15
2023-01-20T11:03:19.927Z,14.68
2023-01-20T11:04:34.028Z,19.08
2023-01-20T11:05:49.265Z,16.25
2023-01-20T11:07:03.553Z,17.85
2023-01-20T11:08:16.112Z,16.55
2023-01-20T11:09:34.615Z,14.43
2023-01-20T11:10:50.263Z,16.85
2023-01-20T11:11:59.642Z,11.38
2023-01-20T11:13:12.036Z,16.98
2023-01-20T11:14:15.496Z,15.60
2023-01-20T11:15:30.597Z,13.93
2023-01-20T11:16:36.737Z,17.65
2023-01-20T11:17:47.805Z,19.65
2023-01-20T11:19:02.479Z,13.85
2023-01-20T11:20:20.304Z,16.73
2023-01-20T11:21:26.114Z,14.25
2023-01-20T11:22:31.230Z,14.05
2023-01-20T11:23:36.673Z,13.43
2023-01-20T11:24:43.682Z,13.45
2023-01-20T11:25:55.097Z,10.77
2023-01-20T11:27:04.466Z,12.43
2023-01-20T11:28:18.898Z,10.00
2023-01-20T11:29:28.561Z,10.93
2023-01-20T11:30:35.089Z,13.20
2023-01-20T11:31:39.999Z,16.42
2023-01-20T11:33:11.058Z,13.70
2023-01-20T11:34:23.378Z,10.88
2023-01-20T11:35:27.245Z,11.23
2023-01-20T11:36:31.188Z,12.05
2023-01-20T11:37:39.038Z,14.40
2023-01-20T11:38:44.912Z,11.40
2023-01-20T11:40:02.793Z,13.43
2023-01-20T11:41:20.741Z,10.10
2023-01-20T11:42:24.850Z,9.50
2023-01-20T11:43:32.711Z,16.05
2023-01-20T11:44:43.122Z,10.00
2023-01-20T11:46:16.261Z,10.73
2023-01-20T11:47:31.519Z,10.48
2023-01-20T11:48:44.477Z,13.10
2023-01-20T11:50:18.884Z,14.60
2023-01-20T11:51:26.219Z,15.15
2023-01-20T11:52:31.477Z,12.15
2023-01-20T11:53:34.694Z,11.35
2023-01-20T11:54:37.423Z,10.95
2023-01-20T11:55:46.835Z,12.63
2023-01-20T11:56:54.940Z,11.43
2023-01-20T11:58:00.718Z,12.32
2023-01-20T11:59:05.201Z,16.55
2023-01-20T12:00:29.591Z,13.18
2023-01-20T12:01:52.033Z,10.85
2023-01-20T12:03:00.011Z,14.57
2023-01-20T12:04:23.339Z,14.13
2023-01-20T12:05:33.976Z,9.82
2023-01-20T12:06:51.780Z,17.50
2023-01-20T12:07:56.250Z,12.52
2023-01-20T12:09:02.538Z,11.48
2023-01-20T12:10:15.582Z,13.73
2023-01-20T12:11:23.303Z,12.35
2023-01-20T12:12:33.739Z,15.48
2023-01-20T12:13:54.763Z,13.57
2023-01-20T12:15:03.737Z,12.57
2023-01-20T12:16:07.047Z,11.85
2023-01-20T12:17:26.443Z,11.40
2023-01-20T12:18:36.696Z,18.10
2023-01-20T12:19:54.737Z,14.05
2023-01-20T12:21:04.116Z,11.05
2023-01-20T12:22:21.307Z,15.48
2023-01-20T12:23:39.122Z,12.82
2023-01-20T12:25:08.297Z,11.05
2023-01-20T12:26:11.517Z,10.40
2023-01-20T12:27:20.729Z,13.95
2023-01-20T12:28:28.165Z,12.75
2023-01-20T12:29:45.325Z,11.30
2023-01-20T12:30:54.055Z,17.08
2023-01-20T12:31:55.732Z,16.98
2023-01-20T12:32:59.238Z,11.43
2023-01-20T12:34:05.034Z,13.15
2023-01-20T12:35:13.367Z,13.82
2023-01-20T12:36:45.961Z,10.18
2023-01-20T12:38:07.648Z,17.05
2023-01-20T12:39:30.160Z,12.95
2023-01-20T12:40:42.054Z,15.98
2023-01-20T12:41:57.763Z,9.15
2023-01-20T12:43:33.840Z,11.68
2023-01-20T12:44:50.568Z,10.57
2023-01-20T12:46:05.933Z,11.82
2023-01-20T12:47:21.399Z,14.00
2023-01-20T12:48:38.233Z,10.55
2023-01-20T12:49:56.828Z,11.80
2023-01-20T12:51:12.588Z,11.52
2023-01-20T12:52:29.308Z,12.15
2023-01-20T12:53:51.178Z,13.38
2023-01-20T12:55:14.877Z,12.80
2023-01-20T12:56:25.579Z,12.32
2023-01-20T12:57:50.928Z,10.63
2023-01-20T12:59:17.277Z,12.65
2023-01-20T13:00:39.083Z,11.02
2023-01-20T13:01:59.022Z,8.63
2023-01-20T13:03:30.974Z,15.00
2023-01-20T13:05:03.360Z,7.75
2023-01-20T13:06:28.585Z,8.45
2023-01-20T13:07:50.217Z,8.55
2023-01-20T13:09:02.361Z,7.60
2023-01-20T13:10:27.395Z,7.07
2023-01-20T13:11:47.736Z,8.45
2023-01-20T13:12:58.371Z,8.88
2023-01-20T13:14:09.576Z,8.15
2023-01-20T13:15:20.300Z,10.27
2023-01-20T13:16:31.601Z,5.20
2023-01-20T13:17:41.321Z,7.25
2023-01-20T13:18:59.720Z,7.25
2023-01-20T13:20:05.676Z,6.40
2023-01-20T13:21:11.621Z,7.18
2023-01-20T13:22:19.089Z,9.50
2023-01-20T13:23:25.255Z,6.25
2023-01-20T13:24:30.036Z,5.45
2023-01-20T13:25:39.114Z,5.30
2023-01-20T13:26:52.177Z,5.95
2023-01-20T13:28:04.676Z,7.82
2023-01-20T13:29:22.478Z,8.20
2023-01-20T13:30:43.674Z,9.07
2023-01-20T13:31:52.762Z,10.30
2023-01-20T13:33:03.641Z,7.55
2023-01-20T13:34:32.166Z,7.95
2023-01-20T13:35:46.518Z,7.78
2023-01-20T13:37:24.110Z,9.07
2023-01-20T13:38:30.764Z,9.27
2023-01-20T13:39:40.632Z,11.02
2023-01-20T13:41:02.852Z,10.52
2023-01-20T13:42:29.685Z,9.02
2023-01-20T13:44:00.026Z,9.45
2023-01-20T13:45:22.865Z,8.52
2023-01-20T13:46:53.516Z,11.80
2023-01-20T13:48:01.030Z,8.40
2023-01-20T13:49:15.060Z,8.57
2023-01-20T13:50:24.568Z,13.50
2023-01-20T13:51:47.935Z,8.95
2023-01-20T13:53:04.904Z,7.88
2023-01-20T13:54:38.226Z,9.65
2023-01-20T13:56:02.395Z,11.65
2023-01-20T13:57:35.659Z,9.98
2023-01-20T13:58:38.219Z,13.02
2023-01-20T13:59:39.803Z,11.60
2023-01-20T14:00:42.827Z,14.30
2023-01-20T14:01:45.503Z,12.43
2023-01-20T14:02:49.445Z,13.13
2023-01-20T14:04:06.116Z,15.45
2023-01-20T14:05:22.702Z,12.40
2023-01-20T14:06:28.272Z,11.68
2023-01-20T14:07:32.635Z,13.70
2023-01-20T14:12:09.104Z,18.70
2023-01-20T14:13:12.125Z,10.95
2023-01-20T14:14:24.290Z,10.40
2023-01-20T14:15:29.008Z,11.02
2023-01-20T14:16:39.112Z,12.10
2023-01-20T14:17:41.204Z,16.92
2023-01-20T14:18:43.727Z,9.93
2023-01-20T14:19:47.526Z,12.30
2023-01-20T14:21:03.590Z,12.20
2023-01-20T14:22:19.825Z,11.35
2023-01-20T14:23:30.255Z,12.05
2023-01-20T14:24:35.089Z,9.23
2023-01-20T14:25:36.653Z,10.25
2023-01-20T14:26:39.126Z,10.60
2023-01-20T14:27:44.329Z,8.10
2023-01-20T14:28:49.712Z,10.85
2023-01-20T14:29:53.100Z,11.07
2023-01-20T14:31:20.368Z,8.38
2023-01-20T14:32:25.327Z,10.68
2023-01-20T14:33:26.972Z,12.85
2023-01-20T14:34:32.473Z,12.75
2023-01-20T14:35:34.658Z,10.27
2023-01-20T14:36:37.241Z,10.45
2023-01-20T14:37:40.127Z,14.57
2023-01-20T14:38:57.306Z,12.52
2023-01-20T14:40:20.485Z,13.57
2023-01-20T14:41:35.607Z,13.50
2023-01-20T14:42:57.562Z,12.60
2023-01-20T14:44:02.750Z,12.80
2023-01-20T14:45:19.030Z,10.65
2023-01-20T14:46:21.495Z,14.95
2023-01-20T14:47:26.146Z,14.77
2023-01-20T14:48:34.486Z,10.95
2023-01-20T14:49:39.500Z,10.63
2023-01-20T14:50:43.113Z,11.00
2023-01-20T14:51:47.133Z,9.82
2023-01-20T14:52:49.962Z,50.70
2023-01-20T14:54:31.118Z,13.05
2023-01-20T14:55:37.655Z,8.52
2023-01-20T14:56:39.751Z,8.10
2023-01-20T14:57:44.517Z,11.85
2023-01-20T14:58:49.600Z,13.55
2023-01-20T15:00:22.682Z,11.65
2023-01-20T15:01:27.739Z,10.10
2023-01-20T15:02:32.555Z,12.55
2023-01-20T15:03:34.263Z,12.80
2023-01-20T15:04:37.915Z,14.20
2023-01-20T15:05:43.224Z,12.52
2023-01-20T15:06:51.663Z,10.57
2023-01-20T15:08:18.487Z,11.98
2023-01-20T15:09:28.570Z,13.93
2023-01-20T15:10:31.092Z,12.85
2023-01-20T15:11:34.445Z,12.48
2023-01-20T15:12:42.248Z,16.25
2023-01-20T15:14:10.389Z,13.68
2023-01-20T15:15:20.272Z,11.57
2023-01-20T15:16:27.067Z,12.50
2023-01-20T15:17:28.754Z,17.33
2023-01-20T15:18:37.460Z,20.63
2023-01-20T15:19:46.555Z,13.57
2023-01-20T15:21:11.699Z,14.50
2023-01-20T15:22:26.777Z,12.63
2023-01-20T15:23:32.357Z,12.75
2023-01-20T15:24:35.372Z,13.63
2023-01-20T15:25:37.447Z,11.95
2023-01-20T15:26:40.630Z,11.07
2023-01-20T15:27:42.263Z,16.35
2023-01-20T15:28:45.654Z,12.30
2023-01-20T15:30:01.331Z,13.50
2023-01-20T15:31:04.230Z,13.27
2023-01-20T15:32:11.294Z,13.10
2023-01-20T15:33:13.798Z,12.27
2023-01-20T15:34:15.413Z,15.82
2023-01-20T15:35:22.683Z,13.50
2023-01-20T15:36:29.109Z,11.90
2023-01-20T15:37:30.630Z,11.95
2023-01-20T15:38:33.340Z,12.75
2023-01-20T15:39:35.020Z,11.95
2023-01-20T15:40:39.515Z,11.65
2023-01-20T15:41:42.513Z,11.70
2023-01-20T15:42:44.213Z,12.10
2023-01-20T15:43:48.930Z,12.25
2023-01-20T15:44:50.427Z,12.55
2023-01-20T15:45:59.077Z,10.88
2023-01-20T15:47:00.699Z,12.93
2023-01-20T15:48:05.098Z,10.32
2023-01-20T15:49:11.304Z,10.20
2023-01-20T15:50:24.329Z,11.35
2023-01-20T15:51:31.852Z,8.40
2023-01-20T15:52:38.043Z,9.85
2023-01-20T15:53:41.596Z,11.32
2023-01-20T15:54:53.140Z,8.35
2023-01-20T15:55:58.312Z,13.27
2023-01-20T15:57:12.089Z,10.88
2023-01-20T15:58:25.818Z,10.45
2023-01-20T15:59:34.132Z,11.25
2023-01-20T16:00:37.923Z,10.35
2023-01-20T16:01:42.551Z,11.40
2023-01-20T16:02:44.195Z,11.68
2023-01-20T16:03:46.792Z,9.73
2023-01-20T16:04:48.769Z,9.52
2023-01-20T16:05:52.721Z,8.50
2023-01-20T16:06:54.318Z,9.75
2023-01-20T16:07:57.461Z,8.23
2023-01-20T16:09:00.908Z,8.80
2023-01-20T16:10:03.486Z,8.80
2023-01-20T16:11:07.734Z,9.75
2023-01-20T16:12:11.993Z,12.77
2023-01-20T16:13:14.863Z,11.15
2023-01-20T16:14:16.568Z,8.85
2023-01-20T16:15:19.372Z,9.80
2023-01-20T16:16:23.969Z,10.05
2023-01-20T16:17:30.518Z,11.70
2023-01-20T16:18:33.051Z,9.40
2023-01-20T16:19:36.173Z,10.02
2023-01-20T16:20:38.683Z,10.50
2023-01-20T16:21:40.453Z,10.48
2023-01-20T16:22:42.989Z,14.63
2023-01-20T16:23:46.027Z,13.63
2023-01-20T16:24:51.202Z,15.95
2023-01-20T16:25:57.701Z,15.45
2023-01-20T16:27:16.305Z,14.27
2023-01-20T16:28:25.114Z,13.20
2023-01-20T16:29:34.955Z,13.10
2023-01-20T16:30:39.437Z,13.77